createdAt,value
2023-05-18T00:00:30.715Z,88.80
2023-05-18T00:02:58.195Z,89.00
2023-05-18T00:05:25.257Z,89.10
2023-05-18T00:07:53.249Z,88.90
2023-05-18T00:10:20.426Z,88.60
2023-05-18T00:12:47.989Z,89.10
2023-05-18T00:15:14.870Z,89.40
2023-05-18T00:17:42.560Z,88.90
2023-05-18T00:20:09.979Z,89.30
2023-05-18T00:22:36.973Z,89.50
2023-05-18T00:25:04.104Z,89.80
2023-05-18T00:27:31.560Z,89.90
2023-05-18T00:29:58.442Z,89.90
2023-05-18T00:32:25.577Z,90.00
2023-05-18T00:34:52.509Z,89.90
2023-05-18T00:37:19.351Z,89.90
2023-05-18T00:39:46.353Z,89.70
2023-05-18T00:42:13.248Z,89.80
2023-05-18T00:44:40.080Z,89.70
2023-05-18T00:47:06.935Z,89.30
2023-05-18T00:49:33.792Z,89.20
2023-05-18T00:52:02.658Z,89.30
2023-05-18T00:54:29.760Z,89.50
2023-05-18T00:57:01.997Z,89.70
2023-05-18T00:59:30.632Z,89.40
2023-05-18T01:01:58.239Z,89.70
2023-05-18T01:04:25.929Z,90.20
2023-05-18T01:06:56.483Z,89.70
2023-05-18T01:09:23.808Z,89.60
2023-05-18T01:11:53.699Z,89.30
2023-05-18T01:14:33.100Z,89.70
2023-05-18T01:17:27.160Z,90.20
2023-05-18T01:20:09.910Z,90.30
2023-05-18T01:22:50.660Z,89.90
2023-05-18T01:25:36.607Z,89.20
2023-05-18T01:28:13.628Z,89.90
2023-05-18T01:30:42.434Z,89.70
2023-05-18T01:33:10.676Z,89.60
2023-05-18T01:35:41.577Z,89.80
2023-05-18T01:38:08.447Z,89.40
2023-05-18T01:40:43.333Z,89.70
2023-05-18T01:43:18.535Z,89.60
2023-05-18T01:45:48.949Z,89.90
2023-05-18T01:48:21.531Z,90.60
2023-05-18T01:50:49.876Z,90.30
2023-05-18T01:53:38.099Z,90.50
2023-05-18T01:56:08.830Z,90.20
2023-05-18T01:58:37.320Z,90.10
2023-05-18T02:01:04.955Z,89.60
2023-05-18T02:03:33.418Z,89.00
2023-05-18T02:06:02.573Z,89.50
2023-05-18T02:08:29.719Z,89.10
2023-05-18T02:10:56.590Z,89.30
2023-05-18T02:13:23.606Z,89.30
2023-05-18T02:15:50.631Z,89.20
2023-05-18T02:18:17.599Z,89.80
2023-05-18T02:20:44.471Z,89.80
2023-05-18T02:23:11.510Z,89.50
2023-05-18T02:25:38.688Z,89.50
2023-05-18T02:28:05.742Z,89.90
2023-05-18T02:30:33.361Z,89.50
2023-05-18T02:33:00.360Z,89.60
2023-05-18T02:35:27.361Z,89.90
2023-05-18T02:37:55.886Z,90.40
2023-05-18T02:40:22.784Z,90.00
2023-05-18T02:42:49.642Z,90.50
2023-05-18T02:45:16.499Z,90.50
2023-05-18T02:47:46.533Z,90.40
2023-05-18T02:50:13.658Z,90.20
2023-05-18T02:52:41.690Z,90.20
2023-05-18T02:55:09.023Z,90.00
2023-05-18T02:57:35.871Z,89.50
2023-05-18T03:00:02.928Z,89.90
2023-05-18T03:02:30.743Z,90.70
2023-05-18T03:04:57.719Z,90.50
2023-05-18T03:07:24.672Z,90.40
2023-05-18T03:09:51.533Z,90.30
2023-05-18T03:12:18.406Z,90.10
2023-05-18T03:14:45.482Z,90.50
2023-05-18T03:17:12.366Z,90.10
2023-05-18T03:19:39.333Z,89.40
2023-05-18T03:22:06.209Z,90.10
2023-05-18T03:24:40.349Z,90.40
2023-05-18T03:27:07.570Z,89.90
2023-05-18T03:29:34.686Z,89.70
2023-05-18T03:32:01.516Z,90.50
2023-05-18T03:34:28.474Z,90.40
2023-05-18T03:36:55.523Z,90.60
2023-05-18T03:39:22.361Z,90.50
2023-05-18T03:41:49.346Z,90.20
2023-05-18T03:44:16.259Z,90.50
2023-05-18T03:46:43.222Z,90.20
2023-05-18T03:49:10.163Z,90.10
2023-05-18T03:51:37.032Z,90.20
2023-05-18T03:54:04.005Z,90.40
2023-05-18T03:56:31.590Z,89.50
2023-05-18T03:58:59.309Z,89.80
2023-05-18T04:01:30.208Z,90.20
2023-05-18T04:03:57.872Z,90.10
2023-05-18T04:06:26.224Z,89.80
2023-05-18T04:08:53.439Z,90.60
2023-05-18T04:11:21.468Z,90.60
2023-05-18T04:13:49.745Z,90.90
2023-05-18T04:16:16.803Z,91.10
2023-05-18T04:18:44.381Z,91.20
2023-05-18T04:21:11.831Z,91.40
2023-05-18T04:23:40.827Z,91.50
2023-05-18T04:26:09.078Z,91.20
2023-05-18T04:28:37.636Z,90.90
2023-05-18T04:31:05.099Z,91.20
2023-05-18T04:33:34.128Z,91.20
2023-05-18T04:36:04.942Z,91.40
2023-05-18T04:38:34.591Z,91.20
2023-05-18T04:41:05.275Z,91.30
2023-05-18T04:43:32.138Z,91.10
2023-05-18T04:45:59.170Z,91.20
2023-05-18T04:48:26.168Z,91.20
2023-05-18T04:50:54.392Z,90.90
2023-05-18T04:53:21.705Z,91.20
2023-05-18T04:55:50.140Z,90.90
2023-05-18T04:58:17.081Z,90.90
2023-05-18T05:00:45.053Z,91.20
2023-05-18T05:03:11.933Z,91.50
2023-05-18T05:05:38.860Z,91.50
2023-05-18T05:08:06.666Z,91.70
2023-05-18T05:10:33.569Z,91.60
2023-05-18T05:13:00.737Z,91.60
2023-05-18T05:15:27.686Z,91.70
2023-05-18T05:17:54.572Z,91.70
2023-05-18T05:20:21.627Z,91.40
2023-05-18T05:22:48.569Z,91.30
2023-05-18T05:25:15.825Z,91.80
2023-05-18T05:27:42.699Z,91.60
2023-05-18T05:30:10.073Z,92.20
2023-05-18T05:32:37.245Z,92.40
2023-05-18T05:35:05.008Z,91.90
2023-05-18T05:37:32.007Z,91.80
2023-05-18T05:39:59.384Z,91.70
2023-05-18T05:42:26.772Z,91.70
2023-05-18T05:44:53.684Z,91.60
2023-05-18T05:47:20.646Z,91.00
2023-05-18T05:49:47.546Z,90.80
2023-05-18T05:52:14.493Z,91.00
2023-05-18T05:54:41.919Z,90.80
2023-05-18T05:57:08.804Z,90.10
2023-05-18T05:59:35.879Z,90.40
2023-05-18T06:02:02.875Z,90.00
2023-05-18T06:04:30.069Z,88.70
2023-05-18T06:06:57.783Z,88.40
2023-05-18T06:09:24.721Z,88.60
2023-05-18T06:11:52.872Z,86.60
2023-05-18T06:14:19.842Z,85.30
2023-05-18T06:16:47.144Z,85.90
2023-05-18T06:19:14.049Z,86.10
2023-05-18T06:21:41.036Z,85.00
2023-05-18T06:24:08.104Z,84.50
2023-05-18T06:26:34.980Z,84.70
2023-05-18T06:29:01.843Z,84.20
2023-05-18T06:31:30.316Z,85.20
2023-05-18T06:33:57.544Z,85.20
2023-05-18T06:36:24.462Z,85.20
2023-05-18T06:38:51.381Z,84.80
2023-05-18T06:41:18.317Z,84.00
2023-05-18T06:43:45.251Z,83.60
2023-05-18T06:46:23.189Z,82.70
2023-05-18T06:48:50.178Z,81.60
2023-05-18T06:51:17.059Z,79.50
2023-05-18T06:53:44.392Z,74.20
2023-05-18T06:56:14.098Z,72.80
2023-05-18T06:58:41.789Z,71.90
2023-05-18T07:01:09.458Z,70.50
2023-05-18T07:03:40.455Z,72.40
2023-05-18T07:06:07.455Z,72.20
2023-05-18T07:08:36.973Z,68.80
2023-05-18T07:11:04.540Z,68.00
2023-05-18T07:13:31.537Z,70.30
2023-05-18T07:15:58.794Z,69.90
2023-05-18T07:18:26.541Z,69.70
2023-05-18T07:20:53.623Z,69.40
2023-05-18T07:23:20.912Z,68.90
2023-05-18T07:25:49.080Z,67.40
2023-05-18T07:28:16.126Z,64.80
2023-05-18T07:30:43.160Z,68.10
2023-05-18T07:33:10.145Z,65.70
2023-05-18T07:35:37.082Z,65.80
2023-05-18T07:38:03.967Z,64.00
2023-05-18T07:40:30.886Z,64.10
2023-05-18T07:42:57.727Z,67.10
2023-05-18T07:45:24.811Z,63.90
2023-05-18T07:47:51.710Z,62.10
2023-05-18T07:50:18.558Z,62.60
2023-05-18T07:52:45.559Z,64.40
2023-05-18T07:55:12.817Z,64.50
2023-05-18T07:57:40.183Z,60.90
2023-05-18T08:00:09.151Z,61.80
2023-05-18T08:02:36.383Z,62.00
2023-05-18T08:05:04.042Z,60.30
2023-05-18T08:07:32.894Z,60.10
2023-05-18T08:09:59.808Z,61.50
2023-05-18T08:12:26.863Z,60.30
2023-05-18T08:14:53.788Z,61.50
2023-05-18T08:17:21.156Z,60.10
2023-05-18T08:19:48.568Z,61.10
2023-05-18T08:22:15.659Z,59.40
2023-05-18T08:24:42.606Z,58.10
2023-05-18T08:27:11.292Z,58.20
2023-05-18T08:29:38.311Z,59.60
2023-05-18T08:32:08.775Z,60.00
2023-05-18T08:34:35.972Z,60.60
2023-05-18T08:37:03.037Z,59.20
2023-05-18T08:39:32.017Z,61.90
2023-05-18T08:42:10.987Z,57.60
2023-05-18T08:44:45.445Z,57.80
2023-05-18T08:47:14.652Z,58.00
2023-05-18T08:49:42.712Z,59.10
2023-05-18T08:52:10.438Z,58.70
2023-05-18T08:54:37.885Z,61.60
2023-05-18T08:57:11.800Z,60.80
2023-05-18T08:59:43.427Z,57.00
2023-05-18T09:02:10.578Z,58.50
2023-05-18T09:04:38.889Z,57.90
2023-05-18T09:07:09.052Z,56.30
2023-05-18T09:09:36.133Z,58.90
2023-05-18T09:12:03.877Z,59.10
2023-05-18T09:14:32.511Z,55.10
2023-05-18T09:16:59.388Z,56.50
2023-05-18T09:19:26.582Z,58.30
2023-05-18T09:21:53.599Z,56.20
2023-05-18T09:24:23.703Z,55.60
2023-05-18T09:26:51.789Z,59.50
2023-05-18T09:29:21.370Z,56.40
2023-05-18T09:31:48.830Z,57.60
2023-05-18T09:34:18.983Z,56.70
2023-05-18T09:36:52.864Z,54.40
2023-05-18T09:39:19.792Z,54.80
2023-05-18T09:41:46.656Z,56.60
2023-05-18T09:44:13.536Z,57.10
2023-05-18T09:46:40.978Z,55.90
2023-05-18T09:49:08.866Z,58.40
2023-05-18T09:51:39.581Z,55.50
2023-05-18T09:54:08.692Z,55.30
2023-05-18T09:56:37.219Z,54.50
2023-05-18T09:59:16.490Z,53.10
2023-05-18T10:02:02.613Z,54.40
2023-05-18T10:04:43.534Z,51.30
2023-05-18T10:07:14.323Z,52.80
2023-05-18T10:09:43.413Z,53.50
2023-05-18T10:12:11.794Z,54.50
2023-05-18T10:14:41.358Z,54.70
2023-05-18T10:19:42.107Z,53.50
2023-05-18T10:22:10.300Z,52.70
2023-05-18T10:24:43.504Z,55.20
2023-05-18T10:27:11.610Z,50.50
2023-05-18T10:29:39.067Z,50.00
2023-05-18T10:32:12.012Z,53.10
2023-05-18T10:34:40.890Z,52.00
2023-05-18T10:37:11.646Z,53.30
2023-05-18T10:39:39.670Z,51.00
2023-05-18T10:42:09.469Z,52.50
2023-05-18T10:44:37.431Z,51.20
2023-05-18T10:47:06.989Z,54.30
2023-05-18T10:49:35.316Z,52.10
2023-05-18T10:52:03.656Z,49.90
2023-05-18T10:54:31.226Z,50.50
2023-05-18T10:56:58.835Z,54.30
2023-05-18T10:59:27.665Z,53.70
2023-05-18T11:01:57.457Z,51.10
2023-05-18T11:04:29.644Z,49.60
2023-05-18T11:07:01.380Z,51.10
2023-05-18T11:09:31.320Z,50.50
2023-05-18T11:11:59.589Z,53.30
2023-05-18T11:14:28.161Z,52.30
2023-05-18T11:17:16.829Z,51.60
2023-05-18T11:20:05.850Z,49.80
2023-05-18T11:22:54.209Z,50.70
2023-05-18T11:25:37.786Z,47.40
2023-05-18T11:28:06.622Z,50.70
2023-05-18T11:30:33.509Z,47.30
2023-05-18T11:33:17.638Z,47.90
2023-05-18T11:36:11.732Z,49.70
2023-05-18T11:38:55.002Z,48.70
2023-05-18T11:41:36.056Z,49.70
2023-05-18T11:44:12.431Z,50.10
2023-05-18T11:46:56.368Z,48.20
2023-05-18T11:49:25.795Z,50.90
2023-05-18T11:51:58.715Z,45.00
2023-05-18T11:54:26.563Z,45.40
2023-05-18T11:56:53.768Z,45.80
2023-05-18T11:59:41.118Z,48.30
2023-05-18T12:02:11.730Z,44.40
2023-05-18T12:04:47.969Z,45.80
2023-05-18T12:07:15.465Z,43.80
2023-05-18T12:09:43.757Z,44.50
2023-05-18T12:12:12.313Z,43.70
2023-05-18T12:14:42.193Z,44.30
2023-05-18T12:17:10.733Z,45.40
2023-05-18T12:19:41.572Z,43.00
2023-05-18T12:22:09.326Z,42.20
2023-05-18T12:24:37.235Z,42.30
2023-05-18T12:27:07.718Z,43.40
2023-05-18T12:29:39.457Z,39.90
2023-05-18T12:32:11.431Z,40.80
2023-05-18T12:34:39.521Z,40.90
2023-05-18T12:37:07.986Z,40.10
2023-05-18T12:39:36.529Z,41.60
2023-05-18T12:42:15.139Z,36.90
2023-05-18T12:44:46.013Z,35.10
2023-05-18T12:47:14.132Z,38.30
2023-05-18T12:49:43.759Z,35.90
2023-05-18T12:52:16.698Z,31.40
2023-05-18T12:54:55.279Z,33.10
2023-05-18T12:57:26.515Z,32.30
2023-05-18T12:59:54.478Z,31.60
2023-05-18T13:02:34.901Z,32.50
2023-05-18T13:05:10.285Z,30.00
2023-05-18T13:07:42.569Z,33.80
2023-05-18T13:10:16.932Z,33.10
2023-05-18T13:12:46.463Z,32.20
2023-05-18T13:15:16.175Z,33.50
2023-05-18T13:17:52.783Z,31.00
2023-05-18T13:20:19.782Z,33.20
2023-05-18T13:22:46.698Z,34.00
2023-05-18T13:25:13.605Z,35.60
2023-05-18T13:27:40.514Z,35.00
2023-05-18T13:30:08.058Z,33.70
2023-05-18T13:32:35.102Z,32.70
2023-05-18T13:35:02.074Z,36.40
2023-05-18T13:37:29.849Z,37.00
2023-05-18T13:39:58.018Z,35.00
2023-05-18T13:42:24.898Z,36.00
2023-05-18T13:44:51.751Z,36.70
2023-05-18T13:47:19.239Z,34.40
2023-05-18T13:49:46.108Z,36.20
2023-05-18T13:52:12.944Z,38.30
2023-05-18T13:54:39.793Z,37.30
2023-05-18T13:57:07.970Z,37.00
2023-05-18T13:59:34.870Z,34.50
2023-05-18T14:02:01.836Z,35.00
2023-05-18T14:04:29.114Z,36.90
2023-05-18T14:06:55.998Z,33.10
2023-05-18T14:09:22.986Z,35.40
2023-05-18T14:11:51.139Z,34.50
2023-05-18T14:14:20.159Z,36.30
2023-05-18T14:16:47.373Z,34.60
2023-05-18T14:19:14.659Z,35.90
2023-05-18T14:21:42.081Z,36.20
2023-05-18T14:24:09.846Z,35.80
2023-05-18T14:26:37.276Z,36.80
2023-05-18T14:29:04.250Z,38.60
2023-05-18T14:31:31.456Z,39.50
2023-05-18T14:33:58.502Z,39.50
2023-05-18T14:36:25.440Z,36.50
2023-05-18T14:38:52.326Z,36.80
2023-05-18T14:41:19.238Z,39.50
2023-05-18T14:43:47.276Z,39.10
2023-05-18T14:46:14.543Z,39.70
2023-05-18T14:48:41.431Z,41.30
2023-05-18T14:51:08.248Z,42.50
2023-05-18T14:53:35.100Z,43.60
2023-05-18T14:56:06.024Z,41.20
2023-05-18T14:58:33.060Z,39.70
2023-05-18T15:00:59.960Z,44.30
2023-05-18T15:03:28.430Z,43.90
2023-05-18T15:05:55.532Z,45.50
2023-05-18T15:08:22.439Z,46.90
2023-05-18T15:10:50.123Z,45.00
2023-05-18T15:13:17.019Z,46.10
2023-05-18T15:15:44.267Z,45.90
2023-05-18T15:18:11.954Z,45.80
2023-05-18T15:20:40.043Z,45.50
2023-05-18T15:23:07.348Z,45.20
2023-05-18T15:25:34.288Z,46.00
2023-05-18T15:28:01.227Z,47.50
2023-05-18T15:30:30.045Z,46.00
2023-05-18T15:32:57.661Z,46.40
2023-05-18T15:35:24.793Z,46.10
2023-05-18T15:37:51.668Z,45.70
2023-05-18T15:40:18.652Z,46.70
2023-05-18T15:42:45.563Z,44.70
2023-05-18T15:45:13.463Z,46.30
2023-05-18T15:47:40.562Z,46.30
2023-05-18T15:50:07.876Z,46.50
2023-05-18T15:52:34.804Z,47.80
2023-05-18T15:55:01.663Z,45.40
2023-05-18T15:57:28.874Z,47.30
2023-05-18T15:59:55.793Z,46.70
2023-05-18T16:02:25.123Z,46.40
2023-05-18T16:04:52.846Z,47.70
2023-05-18T16:07:19.834Z,48.50
2023-05-18T16:09:48.004Z,47.50
2023-05-18T16:12:14.873Z,48.20
2023-05-18T16:14:41.745Z,49.30
2023-05-18T16:17:08.676Z,48.90
2023-05-18T16:19:35.797Z,49.70
2023-05-18T16:22:02.661Z,49.00
2023-05-18T16:24:29.780Z,48.70
2023-05-18T16:26:57.027Z,49.00
2023-05-18T16:29:23.897Z,49.70
2023-05-18T16:31:51.811Z,49.30
2023-05-18T16:34:18.926Z,50.20
2023-05-18T16:36:46.175Z,51.00
2023-05-18T16:39:13.119Z,50.60
2023-05-18T16:41:39.965Z,50.90
2023-05-18T16:44:06.862Z,51.20
2023-05-18T16:46:33.941Z,50.70
2023-05-18T16:49:00.965Z,51.00
2023-05-18T16:51:27.800Z,52.60
2023-05-18T16:53:55.549Z,51.10
2023-05-18T16:56:22.516Z,51.10
2023-05-18T16:58:52.303Z,51.60
2023-05-18T17:01:28.010Z,51.00
2023-05-18T17:03:55.991Z,51.90
2023-05-18T17:06:23.354Z,52.30
2023-05-18T17:08:57.199Z,52.20
2023-05-18T17:11:26.131Z,52.60
2023-05-18T17:13:53.167Z,52.20
2023-05-18T17:16:22.110Z,52.20
2023-05-18T17:18:49.456Z,52.70
2023-05-18T17:21:16.709Z,52.70
2023-05-18T17:23:43.771Z,52.30
2023-05-18T17:26:10.645Z,51.80
2023-05-18T17:28:37.749Z,51.90
2023-05-18T17:31:04.742Z,53.30
2023-05-18T17:33:32.027Z,53.70
2023-05-18T17:35:59.006Z,53.70
2023-05-18T17:38:26.820Z,53.80
2023-05-18T17:40:53.649Z,53.30
2023-05-18T17:43:20.866Z,54.20
2023-05-18T17:45:47.857Z,53.00
2023-05-18T17:48:14.923Z,54.10
2023-05-18T17:50:42.381Z,53.50
2023-05-18T17:53:10.110Z,53.70
2023-05-18T17:55:37.420Z,53.60
2023-05-18T17:58:04.603Z,54.40
2023-05-18T18:00:32.743Z,53.70
2023-05-18T18:03:01.094Z,53.80
2023-05-18T18:05:28.286Z,53.70
2023-05-18T18:07:57.478Z,53.90
2023-05-18T18:10:25.016Z,54.30
2023-05-18T18:12:51.894Z,53.80
2023-05-18T18:15:19.077Z,53.70
2023-05-18T18:17:46.281Z,53.10
2023-05-18T18:20:13.261Z,53.40
2023-05-18T18:22:40.449Z,52.60
2023-05-18T18:25:07.593Z,53.50
2023-05-18T18:27:34.781Z,54.50
2023-05-18T18:30:01.764Z,54.10
2023-05-18T18:32:31.061Z,54.60
2023-05-18T18:34:58.308Z,54.40
2023-05-18T18:37:25.800Z,54.80
2023-05-18T18:39:52.697Z,54.80
2023-05-18T18:42:21.449Z,54.40
2023-05-18T18:44:48.598Z,54.40
2023-05-18T18:47:15.640Z,54.50
2023-05-18T18:49:44.284Z,54.50
2023-05-18T18:52:13.112Z,55.20
2023-05-18T18:54:41.338Z,53.80
2023-05-18T18:57:08.465Z,54.60
2023-05-18T18:59:35.831Z,54.10
2023-05-18T19:02:03.061Z,54.70
2023-05-18T19:04:30.922Z,54.80
2023-05-18T19:07:02.696Z,54.90
2023-05-18T19:09:34.882Z,55.40
2023-05-18T19:12:02.885Z,55.40
2023-05-18T19:14:30.042Z,54.70
2023-05-18T19:16:58.125Z,55.30
2023-05-18T19:19:25.103Z,55.10
2023-05-18T19:21:52.006Z,55.70
2023-05-18T19:24:18.830Z,55.70
2023-05-18T19:26:45.743Z,55.00
2023-05-18T19:29:13.615Z,53.80
2023-05-18T19:31:40.730Z,55.10
2023-05-18T19:34:07.664Z,54.60
2023-05-18T19:36:35.846Z,55.60
2023-05-18T19:39:02.943Z,57.80
2023-05-18T19:41:30.280Z,55.50
2023-05-18T19:43:57.194Z,56.80
2023-05-18T19:46:24.118Z,56.30
2023-05-18T19:48:51.044Z,58.60
2023-05-18T19:51:18.742Z,56.70
2023-05-18T19:53:45.792Z,56.50
2023-05-18T19:56:13.630Z,56.00
2023-05-18T19:58:40.634Z,57.40
2023-05-18T20:01:09.884Z,56.90
2023-05-18T20:03:42.425Z,57.70
2023-05-18T20:06:10.635Z,57.80
2023-05-18T20:08:38.369Z,58.20
2023-05-18T20:11:05.593Z,63.00
2023-05-18T20:13:33.019Z,59.20
2023-05-18T20:16:00.302Z,59.10
2023-05-18T20:18:28.653Z,60.90
2023-05-18T20:20:57.510Z,58.70
2023-05-18T20:23:24.673Z,62.10
2023-05-18T20:25:51.659Z,58.90
2023-05-18T20:28:18.534Z,58.80
2023-05-18T20:30:45.600Z,60.70
2023-05-18T20:33:13.314Z,60.20
2023-05-18T20:35:40.245Z,59.50
2023-05-18T20:38:07.477Z,61.60
2023-05-18T20:40:37.822Z,61.80
2023-05-18T20:43:06.127Z,61.10
2023-05-18T20:45:33.080Z,60.40
2023-05-18T20:48:00.338Z,60.70
2023-05-18T20:50:27.574Z,60.20
2023-05-18T20:52:54.449Z,60.90
2023-05-18T20:55:21.514Z,60.00
2023-05-18T20:57:51.154Z,61.10
2023-05-18T21:00:18.458Z,62.20
2023-05-18T21:02:46.778Z,61.10
2023-05-18T21:05:14.421Z,62.80
2023-05-18T21:07:41.274Z,61.90
2023-05-18T21:10:09.501Z,60.90
2023-05-18T21:12:36.764Z,62.80
2023-05-18T21:15:04.201Z,63.70
2023-05-18T21:17:32.175Z,63.00
2023-05-18T21:19:59.226Z,62.50
2023-05-18T21:22:26.118Z,62.50
2023-05-18T21:24:52.946Z,62.30
2023-05-18T21:27:19.834Z,63.90
2023-05-18T21:29:46.646Z,63.20
2023-05-18T21:32:13.910Z,63.80
2023-05-18T21:34:43.477Z,64.90
2023-05-18T21:37:10.912Z,63.30
2023-05-18T21:39:37.904Z,63.10
2023-05-18T21:42:04.965Z,62.10
2023-05-18T21:44:32.359Z,62.60
2023-05-18T21:46:59.207Z,63.50
2023-05-18T21:49:26.120Z,65.60
2023-05-18T21:51:52.990Z,67.90
2023-05-18T21:54:19.894Z,64.40
2023-05-18T21:56:46.781Z,65.50
2023-05-18T21:59:13.618Z,64.80
2023-05-18T22:01:40.534Z,64.50
2023-05-18T22:04:07.494Z,65.10
2023-05-18T22:06:34.361Z,67.40
2023-05-18T22:09:01.244Z,66.60
2023-05-18T22:11:28.129Z,65.70
2023-05-18T22:13:55.048Z,66.20
2023-05-18T22:16:21.945Z,68.80
2023-05-18T22:18:48.829Z,70.60
2023-05-18T22:21:15.750Z,72.30
2023-05-18T22:23:42.658Z,69.60
2023-05-18T22:26:09.512Z,68.20
2023-05-18T22:28:36.411Z,67.50
2023-05-18T22:31:03.342Z,74.40
2023-05-18T22:33:30.597Z,74.00
2023-05-18T22:35:57.570Z,72.90
2023-05-18T22:38:24.468Z,74.00
2023-05-18T22:40:54.000Z,72.50
2023-05-18T22:43:21.683Z,72.80
2023-05-18T22:45:48.955Z,75.30
2023-05-18T22:48:15.983Z,75.30
2023-05-18T22:50:42.853Z,72.80
2023-05-18T22:53:10.423Z,71.50
2023-05-18T22:55:37.633Z,73.90
2023-05-18T22:58:04.541Z,75.60
2023-05-18T23:00:31.616Z,76.50
2023-05-18T23:02:59.000Z,77.50
2023-05-18T23:05:27.640Z,76.40
2023-05-18T23:07:57.709Z,76.50
2023-05-18T23:10:26.427Z,76.10
2023-05-18T23:12:55.652Z,75.00
2023-05-18T23:15:23.128Z,73.70
2023-05-18T23:17:50.316Z,75.60
2023-05-18T23:20:17.249Z,72.60
2023-05-18T23:22:44.440Z,71.00
2023-05-18T23:25:11.658Z,70.60
2023-05-18T23:27:38.539Z,70.70
2023-05-18T23:30:06.259Z,70.00
2023-05-18T23:32:34.955Z,71.30
2023-05-18T23:35:04.352Z,74.00
2023-05-18T23:37:32.938Z,71.70
2023-05-18T23:40:03.663Z,70.20
2023-05-18T23:42:31.244Z,69.00
2023-05-18T23:44:58.404Z,70.70
2023-05-18T23:47:25.615Z,70.10
2023-05-18T23:49:53.000Z,72.10
2023-05-18T23:52:22.971Z,68.90
2023-05-18T23:54:53.429Z,67.80
2023-05-18T23:57:20.983Z,66.80
2023-05-18T23:59:48.612Z,66.80
